Terminal Aerodrome Forecast
Issued by NWS

Home | Current Version | Previous Version | Text Only | Print | Product List | Glossary On
Versions: 1 2 3 4 5 6 7 8 9 10 11 12 13 14 15 16 17 18 19 20 21
000
FTUS46 KPDT 181012 AAA
TAFYKM
TAF AMD
KYKM 181012Z 1810/1906 VRB03KT 4SM -FZRAPL BR BKN025 BKN100
     FM181300 11003KT 4SM -FZRA BR BKN028 OVC040
     FM182100 14004KT 4SM BR VCSH SCT028 OVC040=

USA.gov is the U.S. government's official web portal to all federal, state and local government web resources and services.